Flight Track Log - Related Links

Times and Time Zones

All times are in EDT time to prevent confusion due to time zone crossing. See the EJA122 flight status page for this flight to view local times or setup timezone preferences in your user account.


Time Position Orientation Groundspeed Altitude Reporting Facility
EDT Latitude Longitude Course Direction KTS MPH feet Rate Location/Type
Mon 01:40:06 PM 34.1667 -118.3667 232° Southwest 204 235 2,800  Level Southern California TRACON
Mon 01:41:15 PM 34.1331 -118.4194 232° Southwest 207 238 6,300 2,864 Climbing Los Angeles Center
Mon 01:42:18 PM 34.1319 -118.4931 269° West 220 253 9,100 2,784 Climbing Los Angeles Center
Mon 01:43:20 PM 34.1961 -118.5558 321° Northwest 262 302 12,100 2,468 Climbing Los Angeles Center
Mon 01:44:22 PM 34.2692 -118.5928 337° Northwest 282 325 14,200 1,790 Climbing Los Angeles Center
Mon 01:45:24 PM 34.3467 -118.6314 338° Northwest 301 346 15,800 1,597 Climbing Los Angeles Center
Mon 01:46:26 PM 34.4322 -118.6736 338° Northwest 329 379 17,500 1,694 Climbing Los Angeles Center
Mon 01:47:28 PM 34.5200 -118.7172 338° Northwest 340 391 19,300 1,597 Climbing Los Angeles Center
Mon 01:48:30 PM 34.6114 -118.7636 337° Northwest 357 411 20,800 1,645 Climbing Los Angeles Center
Mon 01:49:32 PM 34.7233 -118.8222 337° Northwest 364 419 22,700 1,645 Climbing Los Angeles Center
Mon 01:50:34 PM 34.8164 -118.8767 334° Northwest 371 427 24,200 1,440 Climbing Los Angeles Center
Mon 01:51:37 PM 34.8969 -118.9533 322° Northwest 368 423 25,700 1,440 Climbing Los Angeles Center
Mon 01:52:39 PM 34.9839 -119.0369 322° Northwest 365 420 27,200 1,113 Climbing Los Angeles Center
Mon 01:53:41 PM 35.0653 -119.1169 321° Northwest 374 430 28,000 387 Climbing Los Angeles Center
Mon 01:54:43 PM 35.1528 -119.2025 321° Northwest 401 461 28,000  Level Los Angeles Center
Mon 01:55:45 PM 35.2447 -119.2928 321° Northwest 420 483 28,000  Level Los Angeles Center
Mon 01:56:47 PM 35.3400 -119.3853 322° Northwest 435 501 28,000  Level Los Angeles Center
Mon 01:57:49 PM 35.4550 -119.4989 321° Northwest 439 505 28,000  Level Los Angeles Center
Mon 01:58:51 PM 35.5506 -119.5942 321° Northwest 445 512 28,000  Level Los Angeles Center
Mon 01:59:27 PM 35.6058 -119.6500 321° Northwest 450 518 28,000  Level Oakland Center
Mon 01:59:55 PM 35.6472 -119.6914 321° Northwest 450 518 28,000  Level Los Angeles Center
Mon 02:00:57 PM 35.7428 -119.7869 321° Northwest 448 516 28,000  Level Los Angeles Center
Mon 02:02:11 PM 35.8575 -119.9028 321° Northwest 447 514 28,000  Level Los Angeles Center
Mon 02:02:31 PM 35.8925 -119.9381 321° Northwest 446 513 28,000  Level Oakland Center
Mon 02:03:32 PM 35.9922 -120.0367 321° Northwest 457 526 28,000  Level Oakland Center
Mon 02:04:34 PM 36.1111 -120.1581 320° Northwest 464 534 28,000  Level Oakland Center
Mon 02:05:35 PM 36.2106 -120.2569 321° Northwest 462 532 28,000  Level Oakland Center
Mon 02:06:36 PM 36.3100 -120.3606 320° Northwest 467 537 28,000 -732 Level Oakland Center
Mon 02:07:38 PM 36.4069 -120.4619 320° Northwest 461 531 26,500 -1,756 Descending Oakland Center
Mon 02:08:39 PM 36.4986 -120.5514 322° Northwest 429 494 24,400 -2,016 Descending Oakland Center
Mon 02:09:40 PM 36.5897 -120.6464 320° Northwest 428 493 22,400 -1,951 Descending Oakland Center
Mon 02:10:42 PM 36.6806 -120.7422 320° Northwest 430 495 20,400 -1,171 Descending Oakland Center
Mon 02:11:43 PM 36.7661 -120.8333 320° Northwest 414 476 20,000 -197 Descending Oakland Center
Mon 02:12:44 PM 36.8622 -120.9419 318° Northwest 414 476 20,000 -683 Level Oakland Center
Mon 02:13:46 PM 36.9453 -121.0408 316° Northwest 413 475 18,600 -1,610 Descending Oakland Center
Mon 02:14:47 PM 37.0261 -121.1347 317° Northwest 401 461 16,700 -1,869 Descending Oakland Center
Mon 02:15:48 PM 37.1053 -121.2217 319° Northwest 386 444 14,800 -1,756 Descending Oakland Center
Mon 02:16:50 PM 37.1808 -121.3125 316° Northwest 378 435 13,100 -1,659 Descending Oakland Center
Mon 02:17:51 PM 37.2528 -121.3944 318° Northwest 359 413 11,400 -1,525 Descending Oakland Center
Mon 02:18:52 PM 37.3175 -121.4714 317° Northwest 322 371 10,000 -1,525 Descending Oakland Center
Mon 02:19:53 PM 37.3839 -121.5483 317° Northwest 273 314 8,300 -1,561 Descending Oakland Center
Mon 02:20:55 PM 37.4378 -121.6103 318° Northwest 263 303 6,800 -1,122 Descending Oakland Center
Mon 02:21:56 PM 37.5000 -121.6833 317° Northwest 262 302 6,000 -850 Descending Northern Cal TRACON
Mon 02:23:02 PM 37.5333 -121.7667 297° West 268 308 5,000 -524 Descending Northern Cal TRACON
Mon 02:24:02 PM 37.5833 -121.8333 313° West 245 282 4,900 -526 Descending Northern Cal TRACON
Mon 02:24:56 PM 37.6167 -121.9167 297° West 254 292 4,000 -737 Descending Northern Cal TRACON
Mon 02:25:56 PM 37.6500 -121.9667 310° West 212 244 3,500 -600 Descending Northern Cal TRACON
Mon 02:26:56 PM 37.6667 -122.0333 288° West 192 221 2,800 -850 Descending Northern Cal TRACON
Mon 02:27:56 PM 37.6833 -122.1000 288° West 192 221 1,800 -947 Descending Northern Cal TRACON
Mon 02:28:50 PM 37.7000 -122.1500 293° West 163 188 1,000 -789 Descending Northern Cal TRACON
Mon 02:29:50 PM 37.7167 -122.1833 302° West 118 136 300 -700 Descending Northern Cal TRACON
Mon 02:32:00 PM 37.7167 -122.2167 270° West  Level FlightAware Approximate

Login

Don't have an account? Register now (free) for customized features, flight alerts, and more!